Time;durP1;ratioP1;P1;durP2;ratioP2;P2;SDS_P1;SDS_P2;PMS_P1;PMS_P2;Temp;Humidity;BMP_temperature;BMP_pressure;BME280_temperature;BME280_humidity;BME280_pressure;Samples;Min_cycle;Max_cycle;Signal;HPM_P1;HPM_P2
2022/08/31 00:05:47;;;;;;;6.63;2.30;;;14.10;99.90;;;;;;5095422;28;20460;-76
2022/08/31 00:08:15;;;;;;;14.43;2.75;;;14.00;99.90;;;;;;5094127;28;20051;-77
2022/08/31 00:10:45;;;;;;;10.75;3.00;;;14.00;99.90;;;;;;5095412;28;20051;-79
2022/08/31 00:13:14;;;;;;;10.43;2.63;;;14.00;99.90;;;;;;5093891;28;20337;-78
2022/08/31 00:15:42;;;;;;;7.75;2.38;;;14.00;99.90;;;;;;5094966;28;20052;-75
2022/08/31 00:18:09;;;;;;;10.95;2.63;;;14.00;99.90;;;;;;5094973;28;20044;-75
2022/08/31 00:20:38;;;;;;;12.50;2.40;;;14.00;99.90;;;;;;5093526;28;20461;-75
2022/08/31 00:23:06;;;;;;;;;;;14.00;99.90;;;;;;5094556;28;20498;-74
2022/08/31 00:25:36;;;;;;;7.47;2.17;;;14.00;99.90;;;;;;5094840;28;20275;-74
2022/08/31 00:28:04;;;;;;;11.13;2.28;;;14.00;99.90;;;;;;5093817;28;20040;-79
2022/08/31 00:30:34;;;;;;;12.20;2.47;;;14.00;99.90;;;;;;5093919;28;20043;-77
2022/08/31 00:33:02;;;;;;;7.55;1.98;;;14.00;99.90;;;;;;5094332;28;20044;-74
2022/08/31 00:35:34;;;;;;;8.93;2.20;;;14.00;99.90;;;;;;5094164;28;20052;-77
2022/08/31 00:38:04;;;;;;;12.05;2.63;;;14.00;99.90;;;;;;5094879;28;20040;-74
2022/08/31 00:40:33;;;;;;;8.23;2.13;;;14.00;99.90;;;;;;5076079;28;20048;-79
2022/08/31 00:43:33;;;;;;;10.05;2.13;;;14.00;99.90;;;;;;5094319;28;20059;-79
2022/08/31 00:46:01;;;;;;;12.48;2.05;;;14.00;99.90;;;;;;5095068;28;20047;-78
2022/08/31 00:48:28;;;;;;;8.70;2.22;;;14.00;99.90;;;;;;5093658;28;20062;-77
2022/08/31 00:50:57;;;;;;;9.55;2.17;;;14.00;99.90;;;;;;5094174;28;20048;-77
2022/08/31 00:53:25;;;;;;;;;;;14.00;99.90;;;;;;5093853;28;20375;-78
2022/08/31 00:55:53;;;;;;;13.25;2.30;;;14.00;99.90;;;;;;5094869;28;19927;-74
2022/08/31 00:58:21;;;;;;;10.27;2.30;;;14.00;99.90;;;;;;5093683;28;20468;-75
2022/08/31 01:00:50;;;;;;;11.02;2.20;;;14.00;99.90;;;;;;5096514;28;20375;-79
2022/08/31 01:03:19;;;;;;;11.27;2.30;;;14.00;99.90;;;;;;5099046;28;20059;-75
2022/08/31 01:05:47;;;;;;;11.73;2.72;;;13.90;99.90;;;;;;5097611;28;20044;-76
2022/08/31 01:08:15;;;;;;;12.63;2.20;;;13.90;99.90;;;;;;5097590;28;20044;-77
2022/08/31 01:10:44;;;;;;;7.95;2.20;;;13.90;99.90;;;;;;5098110;28;20383;-74
2022/08/31 01:13:14;;;;;;;12.73;2.20;;;13.90;99.90;;;;;;5097391;28;20044;-75
2022/08/31 01:15:48;;;;;;;10.00;2.33;;;13.90;99.90;;;;;;5097651;28;20047;-75
2022/08/31 01:18:22;;;;;;;12.52;2.40;;;13.90;99.90;;;;;;5097651;28;20070;-81
2022/08/31 01:21:10;;;;;;;7.13;1.95;;;13.80;99.90;;;;;;5096483;28;20051;-75
2022/08/31 01:23:41;;;;;;;7.65;1.77;;;13.80;99.90;;;;;;5097949;28;20051;-77
2022/08/31 01:26:13;;;;;;;11.85;2.67;;;13.80;99.90;;;;;;5097397;28;20039;-76
2022/08/31 01:28:41;;;;;;;15.35;2.25;;;13.80;99.90;;;;;;5096275;28;20044;-74
2022/08/31 01:31:13;;;;;;;7.90;2.30;;;13.80;99.90;;;;;;5098252;28;20051;-74
2022/08/31 01:33:41;;;;;;;11.90;2.05;;;13.70;99.90;;;;;;5096911;28;20503;-79
2022/08/31 01:36:09;;;;;;;11.77;1.95;;;13.70;99.90;;;;;;5097571;28;20059;-76
2022/08/31 01:38:43;;;;;;;8.77;2.03;;;13.70;99.90;;;;;;5097357;28;20040;-78
2022/08/31 01:41:11;;;;;;;8.23;2.22;;;13.70;99.90;;;;;;5096858;28;20052;-74
2022/08/31 01:43:41;;;;;;;9.50;2.08;;;13.70;99.90;;;;;;5097516;28;20047;-78
2022/08/31 01:46:12;;;;;;;9.57;2.00;;;13.70;99.90;;;;;;5096992;28;20051;-75
2022/08/31 01:48:42;;;;;;;10.05;1.95;;;13.70;99.90;;;;;;5095893;28;20494;-78
2022/08/31 01:51:12;;;;;;;15.88;2.20;;;13.70;99.90;;;;;;5098150;28;20420;-75
2022/08/31 01:53:42;;;;;;;16.55;2.35;;;13.70;99.90;;;;;;5095774;28;20044;-75
2022/08/31 01:56:21;;;;;;;10.73;2.20;;;13.70;99.90;;;;;;5098370;28;20047;-74
2022/08/31 01:58:51;;;;;;;9.65;2.10;;;13.70;99.90;;;;;;5096942;28;20040;-74
2022/08/31 02:01:51;;;;;;;7.63;1.92;;;13.70;99.90;;;;;;5073470;28;20064;-73
2022/08/31 02:04:22;;;;;;;13.05;2.20;;;13.60;99.90;;;;;;5096941;28;20052;-77
2022/08/31 02:06:56;;;;;;;12.50;2.42;;;13.60;99.90;;;;;;5095607;28;20472;-78
2022/08/31 02:09:24;;;;;;;11.68;2.20;;;13.60;99.90;;;;;;5097008;28;20498;-76
2022/08/31 02:11:52;;;;;;;12.13;2.17;;;13.60;99.90;;;;;;5096454;28;20367;-75
2022/08/31 02:14:20;;;;;;;14.13;2.50;;;13.50;99.90;;;;;;5095550;28;20044;-76
2022/08/31 02:16:49;;;;;;;10.77;2.60;;;13.50;99.90;;;;;;5096402;28;20048;-78
2022/08/31 02:19:17;;;;;;;11.95;2.45;;;13.50;99.90;;;;;;5097229;28;20044;-76
2022/08/31 02:21:45;;;;;;;7.93;2.17;;;13.50;99.90;;;;;;5095390;28;20048;-76
2022/08/31 02:24:12;;;;;;;9.70;2.03;;;13.50;99.90;;;;;;5096703;28;20363;-75
2022/08/31 02:26:41;;;;;;;9.40;2.13;;;13.50;99.90;;;;;;5078420;28;20051;-75
2022/08/31 02:29:08;;;;;;;10.15;2.30;;;13.40;99.90;;;;;;5096125;28;20067;-77
2022/08/31 02:31:36;;;;;;;8.52;2.15;;;13.40;99.90;;;;;;5096220;28;20036;-78
2022/08/31 02:34:04;;;;;;;10.57;2.10;;;13.40;99.90;;;;;;5095182;28;20036;-77
2022/08/31 02:36:32;;;;;;;;;;;13.40;99.90;;;;;;5096623;28;20044;-77
2022/08/31 02:39:04;;;;;;;11.82;2.15;;;13.30;99.90;;;;;;5096231;28;19920;-77
2022/08/31 02:41:33;;;;;;;11.02;2.20;;;13.30;99.90;;;;;;5094747;28;20043;-73
2022/08/31 02:44:01;;;;;;;14.43;2.17;;;13.30;99.90;;;;;;5096397;28;20055;-75
2022/08/31 02:46:30;;;;;;;11.10;2.60;;;13.30;99.90;;;;;;5078140;28;20400;-76
2022/08/31 02:49:26;;;;;;;9.98;2.20;;;13.20;99.90;;;;;;5095713;28;20043;-74
2022/08/31 02:51:54;;;;;;;13.40;2.28;;;13.10;99.90;;;;;;5095671;28;20055;-79
2022/08/31 02:54:22;;;;;;;11.60;2.30;;;13.10;99.90;;;;;;5094936;28;20039;-73
2022/08/31 02:56:51;;;;;;;6.72;1.98;;;13.10;99.90;;;;;;5095696;28;20055;-74
2022/08/31 02:59:19;;;;;;;14.20;2.60;;;13.10;99.90;;;;;;5096021;28;20063;-76
2022/08/31 03:01:47;;;;;;;13.55;2.40;;;13.10;99.90;;;;;;5077630;28;20059;-79
2022/08/31 03:04:16;;;;;;;8.73;2.03;;;13.10;99.90;;;;;;5095573;28;20048;-77
2022/08/31 03:06:46;;;;;;;11.77;2.38;;;13.10;99.90;;;;;;5094271;28;20051;-77
2022/08/31 03:09:14;;;;;;;14.45;2.47;;;13.10;99.90;;;;;;5096646;28;20036;-77
2022/08/31 03:11:43;;;;;;;14.82;2.88;;;13.10;99.90;;;;;;5078581;28;20047;-76
2022/08/31 03:14:11;;;;;;;12.93;2.45;;;13.10;99.90;;;;;;5094455;28;20047;-75
2022/08/31 03:16:39;;;;;;;8.95;2.33;;;13.00;99.90;;;;;;5095458;28;20055;-74
2022/08/31 03:19:08;;;;;;;;;;;13.00;99.90;;;;;;5096657;28;20055;-75
2022/08/31 03:21:35;;;;;;;8.52;1.92;;;13.00;99.90;;;;;;5060362;28;20271;-77
2022/08/31 03:24:03;;;;;;;10.90;2.30;;;13.10;99.90;;;;;;5095564;28;20040;-74
2022/08/31 03:26:31;;;;;;;10.68;2.42;;;13.10;99.90;;;;;;5077070;28;20051;-79
2022/08/31 03:28:59;;;;;;;12.23;2.60;;;13.10;99.90;;;;;;5095316;28;20051;-73
2022/08/31 03:31:36;;;;;;;11.25;2.50;;;13.10;99.90;;;;;;5095957;28;20479;-76
2022/08/31 03:34:04;;;;;;;11.68;2.55;;;13.10;99.90;;;;;;5094379;28;20044;-74
2022/08/31 03:36:32;;;;;;;13.07;2.42;;;13.20;99.90;;;;;;5095081;28;20376;-77
2022/08/31 03:38:59;;;;;;;8.95;2.28;;;13.20;99.90;;;;;;5095800;28;20063;-75
2022/08/31 03:41:27;;;;;;;8.25;2.10;;;13.20;99.90;;;;;;5093896;28;20040;-75
2022/08/31 03:43:55;;;;;;;10.82;2.28;;;13.20;99.90;;;;;;5095070;28;20062;-74
2022/08/31 03:46:23;;;;;;;9.57;2.28;;;13.30;99.90;;;;;;5077245;28;20055;-77
2022/08/31 03:48:51;;;;;;;16.25;2.22;;;13.20;99.90;;;;;;5078330;28;20051;-77
2022/08/31 03:51:19;;;;;;;;;;;13.20;99.90;;;;;;5095170;28;20372;-76
2022/08/31 03:53:47;;;;;;;10.30;2.00;;;13.10;99.90;;;;;;5093484;28;19920;-77
2022/08/31 03:56:19;;;;;;;10.00;2.42;;;13.20;99.90;;;;;;5094714;28;20039;-74
2022/08/31 03:58:49;;;;;;;9.52;2.17;;;13.20;99.90;;;;;;5094440;28;20349;-74
2022/08/31 04:01:43;;;;;;;9.27;2.17;;;13.20;99.90;;;;;;5070860;28;20077;-75
2022/08/31 04:04:29;;;;;;;7.13;2.28;;;13.30;99.90;;;;;;5094656;28;20040;-78
2022/08/31 04:07:06;;;;;;;11.65;2.13;;;13.50;99.90;;;;;;5093389;28;20368;-77
2022/08/31 04:09:52;;;;;;;10.70;2.20;;;13.50;99.90;;;;;;5094443;28;20044;-74
2022/08/31 04:12:55;;;;;;;11.00;2.25;;;13.60;99.90;;;;;;5095009;28;20365;-79
2022/08/31 04:15:46;;;;;;;9.38;2.47;;;13.70;99.90;;;;;;5066416;28;20047;-75
2022/08/31 04:18:33;;;;;;;9.50;2.30;;;13.80;99.90;;;;;;5094261;28;20371;-76
2022/08/31 04:21:00;;;;;;;8.88;2.20;;;13.90;99.90;;;;;;5093006;28;20051;-78
2022/08/31 04:23:28;;;;;;;6.95;2.03;;;14.00;99.90;;;;;;5094242;28;20051;-73
2022/08/31 04:25:57;;;;;;;7.32;2.08;;;14.00;99.90;;;;;;5094279;28;20052;-75
2022/08/31 04:28:25;;;;;;;11.15;2.28;;;14.00;99.90;;;;;;5093241;28;20043;-76
2022/08/31 04:30:53;;;;;;;8.30;1.90;;;14.00;99.90;;;;;;5094068;28;20372;-77
2022/08/31 04:33:21;;;;;;;11.63;2.00;;;13.90;99.90;;;;;;5092779;28;20040;-80
2022/08/31 04:35:48;;;;;;;14.73;2.40;;;13.90;99.90;;;;;;5093557;28;20051;-78
2022/08/31 04:38:16;;;;;;;13.80;2.47;;;13.80;99.90;;;;;;5077265;28;20055;-75
2022/08/31 04:40:45;;;;;;;9.45;2.03;;;13.80;99.90;;;;;;5075808;28;20048;-78
2022/08/31 04:43:13;;;;;;;14.45;2.58;;;13.70;99.90;;;;;;5095257;28;20052;-75
2022/08/31 04:45:41;;;;;;;13.02;2.25;;;13.70;99.90;;;;;;5093886;28;20044;-77
2022/08/31 04:48:13;;;;;;;9.02;2.13;;;13.60;99.90;;;;;;5076059;28;20059;-77
2022/08/31 04:50:42;;;;;;;13.82;2.30;;;13.60;99.90;;;;;;5093726;28;20048;-76
2022/08/31 04:53:10;;;;;;;11.88;2.28;;;13.50;99.90;;;;;;5093733;28;20376;-76
2022/08/31 04:55:40;;;;;;;8.50;2.10;;;13.50;99.90;;;;;;5093828;28;20048;-74
2022/08/31 04:58:12;;;;;;;10.45;2.33;;;13.50;99.90;;;;;;5077185;28;20059;-75
2022/08/31 05:00:43;;;;;;;9.68;2.58;;;13.50;99.90;;;;;;5093681;28;20059;-75
2022/08/31 05:03:51;;;;;;;14.05;2.50;;;13.50;99.90;;;;;;5094382;28;20052;-74
2022/08/31 05:06:22;;;;;;;9.35;1.92;;;13.50;99.90;;;;;;5093623;28;20036;-77
2022/08/31 05:08:56;;;;;;;13.60;2.28;;;13.60;99.90;;;;;;5093994;28;20364;-80
2022/08/31 05:11:25;;;;;;;10.07;2.33;;;13.70;99.90;;;;;;5093523;28;20364;-76
2022/08/31 05:13:55;;;;;;;12.73;2.00;;;13.70;99.90;;;;;;5093503;28;20052;-76
2022/08/31 05:16:23;;;;;;;13.02;2.08;;;13.80;99.90;;;;;;5093536;28;20070;-73
2022/08/31 05:18:51;;;;;;;6.13;2.03;;;13.80;99.90;;;;;;5093614;28;20451;-75
2022/08/31 05:21:29;;;;;;;12.88;2.60;;;13.90;99.90;;;;;;5073214;28;20048;-77
2022/08/31 05:24:02;;;;;;;7.47;1.95;;;14.00;99.90;;;;;;5073415;28;20052;-76
2022/08/31 05:26:33;;;;;;;12.93;2.30;;;14.10;99.90;;;;;;5072840;28;20044;-75
2022/08/31 05:29:05;;;;;;;11.23;2.40;;;14.20;99.90;;;;;;5074418;28;20055;-75
2022/08/31 05:31:36;;;;;;;11.55;2.28;;;14.30;99.90;;;;;;5056994;28;20361;-74
2022/08/31 05:34:04;;;;;;;14.00;2.38;;;14.30;99.90;;;;;;5055587;28;20049;-75
2022/08/31 05:36:38;;;;;;;10.48;2.17;;;14.40;99.90;;;;;;5056605;28;20049;-75
2022/08/31 05:39:10;;;;;;;9.05;2.17;;;14.40;99.90;;;;;;5056322;28;20063;-76
2022/08/31 05:41:41;;;;;;;10.57;2.00;;;14.40;99.90;;;;;;5072240;28;20449;-75
2022/08/31 05:44:10;;;;;;;12.95;2.45;;;14.40;99.90;;;;;;5073238;28;20071;-75
2022/08/31 05:46:39;;;;;;;13.75;2.20;;;14.40;99.90;;;;;;5074866;28;20048;-75
2022/08/31 05:49:08;;;;;;;11.35;2.72;;;14.40;99.90;;;;;;5076804;28;20404;-76
2022/08/31 05:51:38;;;;;;;8.50;1.90;;;14.40;99.90;;;;;;5077232;28;20052;-76
2022/08/31 05:54:09;;;;;;;10.98;2.20;;;14.40;99.90;;;;;;5075679;28;20037;-75
2022/08/31 05:56:39;;;;;;;12.23;2.20;;;14.50;99.90;;;;;;5076605;28;20053;-76
2022/08/31 05:59:07;;;;;;;9.90;1.77;;;14.60;99.90;;;;;;5076866;28;20044;-78
2022/08/31 06:01:38;;;;;;;12.27;2.08;;;14.60;99.90;;;;;;5075400;28;20045;-75
2022/08/31 06:04:12;;;;;;;16.65;2.30;;;14.70;99.90;;;;;;5076989;28;20044;-74
2022/08/31 06:06:42;;;;;;;10.32;2.30;;;14.70;99.90;;;;;;5075811;28;20041;-76
2022/08/31 06:09:14;;;;;;;12.43;2.30;;;14.80;99.90;;;;;;5060710;28;20037;-76
2022/08/31 06:11:44;;;;;;;9.48;2.17;;;14.80;99.90;;;;;;5076391;28;20047;-76
2022/08/31 06:14:15;;;;;;;11.27;2.20;;;14.80;99.90;;;;;;5075099;28;20044;-77
2022/08/31 06:16:44;;;;;;;9.15;2.00;;;14.90;99.90;;;;;;5076830;28;20041;-74
2022/08/31 06:19:15;;;;;;;13.57;2.42;;;15.00;99.90;;;;;;5076562;28;20056;-77
2022/08/31 06:21:49;;;;;;;13.60;2.40;;;14.90;99.90;;;;;;5075140;28;20036;-77
2022/08/31 06:24:22;;;;;;;11.10;2.25;;;14.90;99.90;;;;;;5059688;28;20052;-76
2022/08/31 06:26:54;;;;;;;9.73;1.98;;;14.90;99.90;;;;;;5075730;28;20380;-75
2022/08/31 06:29:30;;;;;;;9.48;2.15;;;14.80;99.90;;;;;;5076294;28;20041;-78
2022/08/31 06:31:59;;;;;;;11.88;2.67;;;14.80;99.90;;;;;;5076205;28;20051;-76
2022/08/31 06:34:29;;;;;;;16.45;2.72;;;14.90;99.90;;;;;;5042012;28;20051;-77
2022/08/31 06:37:07;;;;;;;12.70;2.53;;;14.80;99.90;;;;;;5075635;28;20057;-75
2022/08/31 06:40:04;;;;;;;11.77;2.20;;;14.90;99.90;;;;;;5075401;28;20362;-76
2022/08/31 06:42:52;;;;;;;12.15;2.10;;;15.00;99.90;;;;;;5051127;28;20044;-71
2022/08/31 06:45:32;;;;;;;8.13;2.05;;;15.00;99.90;;;;;;5075484;28;20059;-73
2022/08/31 06:48:24;;;;;;;13.55;2.10;;;15.10;99.90;;;;;;5061127;28;20075;-75
2022/08/31 06:50:56;;;;;;;14.45;2.20;;;15.20;99.90;;;;;;5058502;28;20049;-73
2022/08/31 06:53:25;;;;;;;9.68;2.08;;;15.40;99.90;;;;;;5057324;28;20052;-75
2022/08/31 06:56:14;;;;;;;9.77;2.17;;;15.60;99.90;;;;;;5075129;28;20048;-73
2022/08/31 06:59:07;;;;;;;13.85;1.95;;;15.80;99.90;;;;;;5075812;28;20087;-75
2022/08/31 07:02:01;;;;;;;9.90;2.00;;;16.00;99.90;;;;;;5072553;28;20056;-76
2022/08/31 07:04:37;;;;;;;15.50;2.22;;;16.00;99.90;;;;;;5074990;28;20060;-74
2022/08/31 07:07:07;;;;;;;7.68;1.90;;;16.10;99.90;;;;;;5057137;28;20048;-74
2022/08/31 07:09:38;;;;;;;9.18;2.22;;;16.00;99.90;;;;;;5074970;28;20055;-75
2022/08/31 07:12:07;;;;;;;10.00;2.15;;;16.00;99.90;;;;;;5074710;28;20049;-76
2022/08/31 07:14:36;;;;;;;11.48;2.13;;;15.90;99.90;;;;;;5074486;28;20048;-74
2022/08/31 07:17:06;;;;;;;13.82;2.10;;;16.00;99.90;;;;;;5074787;28;20456;-75
2022/08/31 07:19:34;;;;;;;8.65;2.15;;;16.00;99.90;;;;;;5074591;28;20119;-79
2022/08/31 07:22:05;;;;;;;15.00;2.28;;;16.00;99.90;;;;;;5073827;28;20388;-76
2022/08/31 07:24:35;;;;;;;6.60;2.00;;;16.10;99.90;;;;;;5075023;28;20377;-78
2022/08/31 07:27:08;;;;;;;12.57;2.08;;;16.10;99.90;;;;;;5073904;28;20048;-75
2022/08/31 07:29:48;;;;;;;11.88;2.20;;;16.20;99.90;;;;;;5075257;28;20055;-77
2022/08/31 07:32:17;;;;;;;13.85;2.60;;;16.40;99.90;;;;;;5058811;28;20051;-77
2022/08/31 07:34:46;;;;;;;13.88;2.10;;;16.60;99.90;;;;;;5074507;28;20041;-74
2022/08/31 07:43:17;;;;;;;12.70;2.10;;;17.30;99.90;;;;;;5058078;28;20048;-77
2022/08/31 07:45:45;;;;;;;;;;;17.50;99.90;;;;;;5058302;28;20286;-74
2022/08/31 07:48:19;;;;;;;14.02;2.25;;;17.50;99.90;;;;;;5073781;28;19921;-74
2022/08/31 07:51:16;;;;;;;11.57;2.17;;;17.60;99.90;;;;;;5049771;28;20053;-76
2022/08/31 07:53:50;;;;;;;17.73;2.78;;;17.60;99.90;;;;;;5073445;28;20047;-77
2022/08/31 07:56:32;;;;;;;12.13;2.38;;;17.70;99.90;;;;;;5058503;28;20471;-77
2022/08/31 07:59:11;;;;;;;16.42;2.40;;;17.80;99.90;;;;;;5075563;28;20056;-73
2022/08/31 08:01:41;;;;;;;16.67;2.20;;;17.90;99.90;;;;;;5083679;28;20043;-75
2022/08/31 08:04:20;;;;;;;12.73;2.33;;;17.10;99.90;;;;;;5076566;28;20154;-75
2022/08/31 08:07:17;;;;;;;10.80;2.45;;;18.00;99.90;;;;;;5037107;28;20061;-74
2022/08/31 08:10:12;;;;;;;12.48;2.00;;;18.10;99.90;;;;;;5073636;28;20045;-74
2022/08/31 08:12:55;;;;;;;16.70;2.40;;;18.20;99.90;;;;;;5073602;28;20045;-74
2022/08/31 08:15:36;;;;;;;13.65;2.25;;;18.30;99.90;;;;;;5073522;28;20036;-74
2022/08/31 08:18:12;;;;;;;12.45;2.40;;;18.40;99.90;;;;;;5074455;28;20048;-73
2022/08/31 08:20:48;;;;;;;13.90;2.20;;;18.40;99.90;;;;;;5088769;28;20048;-73
2022/08/31 08:23:18;;;;;;;14.60;2.45;;;18.50;99.90;;;;;;5094102;28;20357;-73
2022/08/31 08:26:11;;;;;;;17.73;2.55;;;18.60;99.90;;;;;;5095126;28;20048;-73
2022/08/31 08:29:07;;;;;;;10.45;2.08;;;18.80;99.90;;;;;;5094902;28;20380;-74
2022/08/31 08:31:41;;;;;;;13.00;2.25;;;19.00;99.90;;;;;;5094188;28;20036;-75
2022/08/31 08:34:10;;;;;;;12.68;2.17;;;19.20;99.90;;;;;;5092560;28;20040;-73
2022/08/31 08:36:39;;;;;;;;;;;19.20;99.90;;;;;;5094346;28;20040;-74
2022/08/31 08:39:09;;;;;;;14.98;2.17;;;19.40;99.90;;;;;;5077277;28;19931;-74
2022/08/31 08:41:45;;;;;;;13.50;2.20;;;19.40;99.90;;;;;;5060294;28;20500;-74
2022/08/31 08:44:16;;;;;;;16.17;2.08;;;19.50;99.90;;;;;;5077128;28;20046;-73
2022/08/31 08:46:51;;;;;;;11.35;2.17;;;19.60;99.90;;;;;;5093116;28;20055;-73
2022/08/31 08:49:39;;;;;;;13.80;2.25;;;19.60;99.60;;;;;;5093840;28;20364;-73
2022/08/31 08:52:11;;;;;;;12.40;1.98;;;19.70;99.10;;;;;;5077118;28;20472;-74
2022/08/31 08:54:48;;;;;;;9.88;2.10;;;19.80;98.70;;;;;;5093296;28;20471;-73
2022/08/31 08:57:22;;;;;;;15.30;2.50;;;19.80;98.50;;;;;;5094142;28;20102;-74
2022/08/31 08:59:55;;;;;;;12.55;2.55;;;19.90;98.30;;;;;;5092886;28;20044;-74
2022/08/31 09:02:33;;;;;;;18.08;2.35;;;19.90;98.40;;;;;;5094209;28;20483;-74
2022/08/31 09:05:29;;;;;;;11.82;2.08;;;19.90;98.00;;;;;;5094880;28;20051;-74
2022/08/31 09:08:10;;;;;;;11.15;2.50;;;19.90;98.00;;;;;;5093043;28;20040;-73
2022/08/31 09:11:27;;;;;;;16.77;2.25;;;19.90;97.90;;;;;;5093729;28;20048;-74
2022/08/31 09:14:05;;;;;;;15.15;2.60;;;19.90;97.90;;;;;;5076370;28;20483;-73
2022/08/31 09:16:56;;;;;;;14.82;2.35;;;20.60;98.10;;;;;;5093910;28;20197;-73
2022/08/31 09:19:24;;;;;;;16.88;2.60;;;20.20;97.60;;;;;;5093562;28;20055;-73
2022/08/31 09:21:55;;;;;;;11.27;2.00;;;20.40;97.20;;;;;;5079102;28;20127;-74
2022/08/31 09:24:26;;;;;;;14.40;2.28;;;20.50;96.30;;;;;;5098060;28;20376;-74
2022/08/31 09:27:18;;;;;;;10.75;2.13;;;20.70;96.20;;;;;;5080721;28;20059;-74
2022/08/31 09:29:51;;;;;;;9.00;1.95;;;20.80;95.70;;;;;;5097148;28;20487;-73
2022/08/31 09:32:31;;;;;;;14.38;2.13;;;20.90;95.40;;;;;;5097594;28;20048;-72
2022/08/31 09:35:03;;;;;;;10.68;1.98;;;21.00;95.30;;;;;;5097063;28;20036;-73
2022/08/31 09:37:43;;;;;;;12.10;2.13;;;21.00;95.00;;;;;;5097979;28;20048;-73
2022/08/31 09:40:35;;;;;;;8.82;1.90;;;22.30;95.50;;;;;;5096052;28;20059;-73
2022/08/31 09:43:12;;;;;;;13.65;2.30;;;21.10;94.30;;;;;;5097664;28;20055;-74
2022/08/31 09:46:07;;;;;;;11.60;2.00;;;21.10;94.30;;;;;;5080296;28;20488;-74
2022/08/31 09:48:50;;;;;;;13.98;2.28;;;21.10;93.70;;;;;;5095913;28;20391;-74
2022/08/31 09:51:24;;;;;;;11.57;2.10;;;21.20;94.10;;;;;;5096903;28;20051;-73
2022/08/31 09:57:06;;;;;;;10.38;1.90;;;21.50;94.00;;;;;;5097412;28;20475;-73
2022/08/31 09:59:44;;;;;;;11.90;1.85;;;21.60;93.80;;;;;;5096753;28;20051;-73
2022/08/31 10:02:25;;;;;;;13.93;2.15;;;21.60;93.90;;;;;;5096653;28;20062;-72
2022/08/31 10:04:56;;;;;;;9.68;2.13;;;21.80;93.60;;;;;;5096990;28;20047;-73
2022/08/31 10:07:42;;;;;;;11.55;2.00;;;21.80;93.30;;;;;;5095516;28;20044;-75
2022/08/31 10:10:29;;;;;;;11.93;2.05;;;21.70;92.50;;;;;;5097138;28;20051;-73
2022/08/31 10:13:04;;;;;;;11.73;1.92;;;21.70;92.90;;;;;;5096850;28;20051;-73
2022/08/31 10:15:58;;;;;;;9.82;1.70;;;21.60;92.60;;;;;;5097482;28;20055;-73
2022/08/31 10:18:38;;;;;;;10.63;1.75;;;21.70;92.70;;;;;;5097053;28;20044;-73
2022/08/31 10:21:25;;;;;;;12.52;2.00;;;21.80;92.30;;;;;;5096787;28;20051;-72
2022/08/31 10:24:19;;;;;;;11.35;2.00;;;21.90;92.40;;;;;;5097599;28;20048;-73
2022/08/31 10:26:55;;;;;;;13.15;1.95;;;21.90;92.30;;;;;;5096208;28;20055;-73
2022/08/31 10:29:47;;;;;;;7.68;1.83;;;21.90;92.30;;;;;;5095718;28;20059;-73
2022/08/31 10:32:22;;;;;;;11.23;2.10;;;21.80;92.10;;;;;;5096777;28;20368;-74
2022/08/31 10:35:06;;;;;;;9.25;1.92;;;21.70;92.10;;;;;;5095802;28;20052;-73
2022/08/31 10:37:58;;;;;;;10.18;1.90;;;21.70;92.40;;;;;;5095983;28;20380;-73
2022/08/31 10:40:36;;;;;;;13.88;2.00;;;21.70;92.50;;;;;;5095018;28;20055;-73
2022/08/31 10:43:15;;;;;;;12.82;1.85;;;21.70;92.40;;;;;;5096531;28;20040;-72
2022/08/31 10:45:48;;;;;;;9.18;1.88;;;21.70;92.70;;;;;;5095196;28;20048;-73
2022/08/31 10:48:28;;;;;;;11.50;1.88;;;21.80;92.50;;;;;;5094497;28;20059;-78
2022/08/31 10:51:19;;;;;;;9.15;1.90;;;21.90;92.60;;;;;;5089185;28;20464;-77
2022/08/31 10:55:05;;;;;;;13.45;1.92;;;22.60;92.40;;;;;;5091476;28;20055;-78
2022/08/31 10:58:16;;;;;;;8.73;1.90;;;22.40;92.30;;;;;;5096280;28;20040;-78
2022/08/31 11:01:36;;;;;;;12.90;2.00;;;22.20;91.90;;;;;;5080401;28;20375;-77
2022/08/31 11:04:36;;;;;;;10.82;1.77;;;21.90;92.20;;;;;;5079546;28;20044;-79
2022/08/31 11:07:40;;;;;;;12.25;1.90;;;21.90;91.60;;;;;;5086855;28;20041;-78
2022/08/31 11:10:25;;;;;;;9.35;1.83;;;21.80;91.60;;;;;;5075163;28;20376;-75
2022/08/31 11:12:59;;;;;;;7.53;1.70;;;22.00;91.60;;;;;;5075228;28;20053;-71
2022/08/31 11:15:51;;;;;;;12.63;1.70;;;22.10;91.50;;;;;;5074957;28;20044;-74
2022/08/31 11:18:42;;;;;;;12.25;1.75;;;22.20;91.20;;;;;;5075604;28;20480;-79
2022/08/31 11:21:44;;;;;;;11.48;1.70;;;22.40;90.90;;;;;;5074046;28;20048;-75
2022/08/31 11:24:42;;;;;;;10.43;1.60;;;22.50;89.00;;;;;;5075661;28;20049;-75
2022/08/31 11:27:18;;;;;;;;;;;22.80;87.60;;;;;;5074498;28;20044;-75
2022/08/31 11:29:55;;;;;;;13.02;1.70;;;23.10;86.90;;;;;;5075240;28;19920;-74
2022/08/31 11:32:40;;;;;;;12.63;1.67;;;23.20;86.60;;;;;;5074479;28;20055;-73
2022/08/31 11:35:09;;;;;;;10.00;1.50;;;23.20;86.80;;;;;;5074486;28;20057;-75
2022/08/31 11:37:59;;;;;;;13.88;1.90;;;23.30;87.80;;;;;;5075408;28;20472;-75
2022/08/31 11:40:40;;;;;;;9.95;1.80;;;23.20;87.40;;;;;;5074464;28;20052;-75
2022/08/31 11:43:30;;;;;;;8.75;1.65;;;23.10;88.00;;;;;;5074851;28;20150;-77
2022/08/31 11:46:24;;;;;;;7.15;1.75;;;22.90;85.10;;;;;;5074912;28;20045;-76
2022/08/31 11:48:53;;;;;;;7.97;1.80;;;22.60;85.70;;;;;;5075067;28;20048;-76
2022/08/31 11:51:36;;;;;;;6.75;1.45;;;22.20;87.40;;;;;;5075200;28;20044;-78
2022/08/31 11:54:44;;;;;;;7.85;1.38;;;22.10;87.70;;;;;;5074240;28;20040;-77
2022/08/31 11:57:19;;;;;;;9.63;1.50;;;22.10;87.10;;;;;;5074893;28;20453;-72
2022/08/31 11:59:48;;;;;;;7.50;1.48;;;22.10;87.60;;;;;;5072817;28;20380;-77
2022/08/31 12:02:18;;;;;;;11.02;1.73;;;22.30;87.60;;;;;;5073893;28;20059;-75
2022/08/31 12:04:56;;;;;;;9.82;1.40;;;22.30;87.10;;;;;;5074898;28;20056;-72
2022/08/31 12:07:33;;;;;;;6.30;1.48;;;22.40;86.80;;;;;;5073173;28;20063;-76
2022/08/31 12:10:39;;;;;;;8.55;1.50;;;22.50;85.20;;;;;;5074888;28;20049;-76
2022/08/31 12:13:06;;;;;;;9.43;1.40;;;22.50;85.10;;;;;;5018770;28;20052;-76
2022/08/31 12:15:53;;;;;;;14.75;1.60;;;22.60;85.40;;;;;;5074757;28;20048;-74
2022/08/31 12:19:05;;;;;;;12.27;1.92;;;22.60;84.00;;;;;;5074725;28;20048;-77
2022/08/31 12:24:51;;;;;;;10.05;1.40;;;22.80;84.30;;;;;;5073614;28;20052;-75
2022/08/31 12:27:38;;;;;;;7.63;1.50;;;22.70;84.20;;;;;;5030645;28;20044;-74
2022/08/31 12:30:23;;;;;;;5.68;1.30;;;22.80;82.80;;;;;;5074452;28;20369;-75
2022/08/31 12:33:15;;;;;;;8.30;1.40;;;22.80;82.90;;;;;;5074705;28;20060;-73
2022/08/31 12:35:45;;;;;;;11.00;1.55;;;22.80;82.20;;;;;;5079785;28;20043;-76
2022/08/31 12:38:22;;;;;;;4.80;1.20;;;22.80;82.40;;;;;;5074490;28;20044;-78
2022/08/31 12:40:55;;;;;;;5.63;1.23;;;22.90;80.90;;;;;;5074006;28;20052;-74
2022/08/31 12:43:34;;;;;;;5.90;1.45;;;23.00;81.60;;;;;;5074798;28;20361;-74
2022/08/31 12:46:30;;;;;;;4.85;1.20;;;23.00;81.30;;;;;;5077787;28;20039;-73
2022/08/31 12:48:58;;;;;;;4.68;1.35;;;23.10;77.30;;;;;;5095295;28;20051;-72
2022/08/31 12:51:53;;;;;;;4.53;1.33;;;23.10;79.20;;;;;;5077812;28;20052;-74
2022/08/31 12:54:36;;;;;;;7.07;1.17;;;23.10;77.30;;;;;;5070372;28;20495;-76
2022/08/31 12:57:15;;;;;;;4.90;1.23;;;23.20;76.60;;;;;;5099136;28;20052;-77
2022/08/31 13:00:08;;;;;;;6.47;1.10;;;23.30;77.00;;;;;;5080921;28;20048;-74
2022/08/31 13:02:45;;;;;;;5.93;1.30;;;23.40;74.60;;;;;;5098710;28;20059;-72
2022/08/31 13:05:23;;;;;;;6.40;1.23;;;23.50;75.70;;;;;;5099473;28;20048;-74
2022/08/31 13:07:51;;;;;;;7.60;1.30;;;23.70;75.30;;;;;;5084878;28;20048;-74
2022/08/31 13:10:32;;;;;;;6.05;1.33;;;23.70;74.80;;;;;;5078796;28;20463;-74
2022/08/31 13:13:04;;;;;;;3.92;1.10;;;23.70;73.10;;;;;;5078010;28;20048;-73
2022/08/31 13:15:38;;;;;;;9.38;1.20;;;23.80;74.40;;;;;;5090100;28;20455;-74
2022/08/31 13:18:25;;;;;;;7.10;1.38;;;24.00;74.10;;;;;;5099026;28;20051;-75
2022/08/31 13:20:55;;;;;;;5.18;1.10;;;24.00;73.20;;;;;;5097651;28;20044;-75
2022/08/31 13:23:30;;;;;;;8.27;1.50;;;24.20;73.30;;;;;;5098189;28;20460;-75
2022/08/31 13:26:04;;;;;;;6.97;1.30;;;24.20;73.00;;;;;;5097721;28;20052;-75
2022/08/31 13:28:33;;;;;;;5.88;1.02;;;24.30;72.00;;;;;;5097853;28;20056;-75
2022/08/31 13:31:07;;;;;;;8.98;1.45;;;24.40;71.90;;;;;;5085681;28;20047;-75
2022/08/31 13:33:38;;;;;;;7.45;1.42;;;24.30;70.00;;;;;;5077430;28;20044;-77
2022/08/31 13:36:29;;;;;;;7.28;1.30;;;24.20;71.40;;;;;;5078548;28;20045;-75
2022/08/31 13:39:01;;;;;;;7.07;1.30;;;24.20;71.50;;;;;;5077055;28;20059;-75
2022/08/31 13:41:39;;;;;;;7.20;1.20;;;24.20;71.50;;;;;;5077092;28;20052;-75
2022/08/31 13:44:10;;;;;;;8.10;1.35;;;24.20;70.20;;;;;;5077961;28;20053;-77
2022/08/31 13:46:42;;;;;;;7.82;1.40;;;24.20;70.00;;;;;;5059730;28;20396;-76